Time;durP1;ratioP1;P1;durP2;ratioP2;P2;SDS_P1;SDS_P2;PMS_P1;PMS_P2;Temp;Humidity;BMP_temperature;BMP_pressure;BME280_temperature;BME280_humidity;BME280_pressure;Samples;Min_cycle;Max_cycle;Signal;HPM_P1;HPM_P2
2023/12/06 08:06:10;;;;;;;8.27;6.90;;;;;;;;;;12807716;22;3009586;-80
2023/12/06 08:11:11;;;;;;;9.68;8.05;;;;;;;;;;12944174;22;20422;-81
2023/12/06 08:16:12;;;;;;;11.73;9.68;;;;;;;;;;12947011;23;20036;-86
2023/12/06 08:21:13;;;;;;;;;;;;;;;;;;12941889;22;20004;-84
2023/12/06 08:26:44;;;;;;;9.18;7.55;;;;;;;;;;12917925;23;19900;-85
2023/12/06 08:31:51;;;;;;;8.60;6.82;;;;;;;;;;12865767;23;20032;-85
2023/12/06 08:37:03;;;;;;;11.43;8.30;;;;;;;;;;12853004;23;20009;-85
2023/12/06 08:42:05;;;;;;;7.25;5.75;;;;;;;;;;12914791;23;20015;-85
2023/12/06 08:47:06;;;;;;;7.45;5.47;;;;;;;;;;12939000;23;20003;-85
2023/12/06 08:52:29;;;;;;;8.57;7.00;;;;;;;;;;12938560;23;20011;-85
2023/12/06 08:57:30;;;;;;;14.70;11.55;;;;;;;;;;12898411;23;20043;-84
2023/12/06 09:02:31;;;;;;;7.88;6.72;;;;;;;;;;12911742;23;20015;-81
2023/12/06 09:07:32;;;;;;;8.65;6.22;;;;;;;;;;12934317;23;20430;-80
2023/12/06 09:12:34;;;;;;;8.50;7.20;;;;;;;;;;12909714;23;20001;-81
2023/12/06 09:17:38;;;;;;;11.45;9.57;;;;;;;;;;12934336;23;20027;-80
2023/12/06 09:22:46;;;;;;;7.20;6.05;;;;;;;;;;12934840;22;20342;-80
2023/12/06 09:27:50;;;;;;;7.07;5.55;;;;;;;;;;12936428;23;20000;-81
2023/12/06 09:33:04;;;;;;;7.60;6.15;;;;;;;;;;12936484;22;20008;-82
2023/12/06 09:38:08;;;;;;;6.53;5.30;;;;;;;;;;12910986;23;20004;-85
2023/12/06 09:43:29;;;;;;;8.00;6.28;;;;;;;;;;12930293;23;20008;-80
2023/12/06 09:48:30;;;;;;;;;;;;;;;;;;12931479;22;20000;-80
2023/12/06 09:53:31;;;;;;;6.03;5.07;;;;;;;;;;12905799;23;19904;-77
2023/12/06 09:58:32;;;;;;;7.18;5.15;;;;;;;;;;12932768;22;20058;-83
2023/12/06 10:03:34;;;;;;;5.45;4.32;;;;;;;;;;12943965;23;20047;-83
2023/12/06 10:08:35;;;;;;;5.78;4.10;;;;;;;;;;12947661;22;20008;-84
2023/12/06 10:13:37;;;;;;;6.38;5.30;;;;;;;;;;12964562;23;19992;-83
2023/12/06 10:18:39;;;;;;;5.10;4.53;;;;;;;;;;12955690;22;20008;-83
2023/12/06 10:23:42;;;;;;;7.05;4.80;;;;;;;;;;12932973;23;20012;-79
2023/12/06 10:28:45;;;;;;;7.65;5.43;;;;;;;;;;12932480;22;20008;-80
2023/12/06 10:33:46;;;;;;;5.18;4.60;;;;;;;;;;12937953;23;20442;-83
2023/12/06 10:38:52;;;;;;;6.43;5.22;;;;;;;;;;12939000;22;20001;-82
2023/12/06 10:43:56;;;;;;;7.13;4.85;;;;;;;;;;12935179;23;20051;-82
2023/12/06 10:49:14;;;;;;;6.32;5.38;;;;;;;;;;12937196;22;20008;-85
2023/12/06 10:54:15;;;;;;;5.40;4.15;;;;;;;;;;12933362;23;20008;-81
2023/12/06 10:59:17;;;;;;;6.32;4.78;;;;;;;;;;12931372;22;20000;-83
2023/12/06 11:04:20;;;;;;;5.05;3.65;;;;;;;;;;12941137;23;20072;-82
2023/12/06 11:09:45;;;;;;;6.25;4.47;;;;;;;;;;12926294;22;20015;-81
2023/12/06 11:14:50;;;;;;;6.15;4.38;;;;;;;;;;12932004;23;20004;-79
2023/12/06 11:19:51;;;;;;;7.13;5.68;;;;;;;;;;12945099;22;20011;-83
2023/12/06 11:24:52;;;;;;;;;;;;;;;;;;12940039;23;20115;-81
2023/12/06 11:29:54;;;;;;;;;;;;;;;;;;12937240;22;20313;-84
2023/12/06 11:34:55;;;;;;;5.75;4.95;;;;;;;;;;12913807;23;19904;-80
2023/12/06 11:40:20;;;;;;;5.18;3.90;;;;;;;;;;12940437;22;20084;-84
2023/12/06 11:45:31;;;;;;;16.83;13.05;;;;;;;;;;12910775;23;20035;-83
2023/12/06 11:50:45;;;;;;;13.32;11.27;;;;;;;;;;12916131;22;19996;-84
2023/12/06 11:55:46;;;;;;;6.72;5.28;;;;;;;;;;12916355;23;20004;-84
2023/12/06 12:00:49;;;;;;;7.28;6.53;;;;;;;;;;12938815;22;20038;-83
2023/12/06 12:05:50;;;;;;;5.97;4.60;;;;;;;;;;12890012;23;20023;-83
2023/12/06 12:10:51;;;;;;;5.20;4.05;;;;;;;;;;12939430;22;20000;-83
2023/12/06 12:15:52;;;;;;;;;;;;;;;;;;12940318;23;20485;-84
2023/12/06 12:20:55;;;;;;;6.30;5.57;;;;;;;;;;12916104;22;19899;-83
2023/12/06 12:25:56;;;;;;;7.35;5.50;;;;;;;;;;12943510;23;20004;-83
2023/12/06 12:30:57;;;;;;;;;;;;;;;;;;12940435;22;20334;-79
2023/12/06 12:35:58;;;;;;;5.25;3.75;;;;;;;;;;12916701;23;19935;-80
2023/12/06 12:40:59;;;;;;;9.25;8.07;;;;;;;;;;12945362;22;20004;-79
2023/12/06 12:46:00;;;;;;;4.93;4.32;;;;;;;;;;12948301;23;20004;-80
2023/12/06 12:51:02;;;;;;;;;;;;;;;;;;12951355;22;20018;-80
2023/12/06 12:56:03;;;;;;;5.97;4.75;;;;;;;;;;12925699;23;19944;-81
2023/12/06 13:01:05;;;;;;;4.78;4.18;;;;;;;;;;12937854;22;20035;-81
2023/12/06 13:06:09;;;;;;;6.53;5.00;;;;;;;;;;12932652;23;20030;-81
2023/12/06 13:11:10;;;;;;;5.53;4.38;;;;;;;;;;12936807;22;20068;-83
2023/12/06 13:16:11;;;;;;;;;;;;;;;;;;12981808;22;20020;-82
2023/12/06 13:21:12;;;;;;;7.85;5.35;;;;;;;;;;12954734;22;19908;-82
2023/12/06 13:26:13;;;;;;;;;;;;;;;;;;12972092;23;20011;-83
2023/12/06 13:31:14;;;;;;;7.78;5.88;;;;;;;;;;12914996;22;19946;-83
2023/12/06 13:36:15;;;;;;;5.85;4.00;;;;;;;;;;12942090;23;20005;-82
2023/12/06 13:41:16;;;;;;;;;;;;;;;;;;12941205;22;20004;-84
2023/12/06 13:46:30;;;;;;;5.97;4.75;;;;;;;;;;12917250;23;19900;-83
2023/12/06 13:51:31;;;;;;;7.93;6.15;;;;;;;;;;12917378;23;20008;-82
2023/12/06 13:56:36;;;;;;;8.10;7.03;;;;;;;;;;12942417;23;20072;-83
2023/12/06 14:01:37;;;;;;;;;;;;;;;;;;12940184;23;20056;-81
2023/12/06 14:06:39;;;;;;;7.03;4.47;;;;;;;;;;12913415;23;19961;-83
2023/12/06 14:11:40;;;;;;;5.45;4.57;;;;;;;;;;12938091;23;20039;-83
2023/12/06 14:16:41;;;;;;;;;;;;;;;;;;12942656;23;20008;-83
2023/12/06 14:21:47;;;;;;;;;;;;;;;;;;12916261;23;19919;-83
2023/12/06 14:26:59;;;;;;;6.13;4.63;;;;;;;;;;12913864;23;19975;-82
2023/12/06 14:32:00;;;;;;;5.88;4.00;;;;;;;;;;12909937;23;20343;-82
2023/12/06 14:37:01;;;;;;;6.35;4.68;;;;;;;;;;12940027;23;20004;-83
2023/12/06 14:42:02;;;;;;;5.75;4.38;;;;;;;;;;12939429;23;20005;-82
2023/12/06 14:47:03;;;;;;;4.60;3.60;;;;;;;;;;12937969;23;20031;-83
2023/12/06 14:52:04;;;;;;;;;;;;;;;;;;12937075;23;20020;-83
2023/12/06 14:57:05;;;;;;;7.32;5.55;;;;;;;;;;12912437;23;19919;-82
2023/12/06 15:02:08;;;;;;;7.38;4.97;;;;;;;;;;12939369;23;20020;-82
2023/12/06 15:07:10;;;;;;;6.40;4.70;;;;;;;;;;12944208;23;20078;-85
2023/12/06 15:12:11;;;;;;;5.05;3.20;;;;;;;;;;12943603;23;20016;-83
2023/12/06 15:17:17;;;;;;;;;;;;;;;;;;12942184;23;20004;-84
2023/12/06 15:22:18;;;;;;;7.32;4.90;;;;;;;;;;12916716;23;19942;-83
2023/12/06 15:27:19;;;;;;;9.32;4.18;;;;;;;;;;12943517;23;20338;-84
2023/12/06 15:32:20;;;;;;;;;;;;;;;;;;12941511;23;20135;-82
2023/12/06 15:37:21;;;;;;;9.57;5.25;;;;;;;;;;12916646;23;19900;-82
2023/12/06 15:42:35;;;;;;;;;;;;;;;;;;12939413;23;20330;-83
2023/12/06 15:47:36;;;;;;;6.95;5.05;;;;;;;;;;12912739;23;19900;-82
2023/12/06 15:52:37;;;;;;;7.32;4.80;;;;;;;;;;12940633;23;20004;-82
2023/12/06 15:57:39;;;;;;;;;;;;;;;;;;12938159;23;20015;-83
2023/12/06 16:02:41;;;;;;;8.93;5.50;;;;;;;;;;12954079;22;19918;-84
2023/12/06 16:07:42;;;;;;;6.15;4.30;;;;;;;;;;12973652;23;20024;-84
2023/12/06 16:12:45;;;;;;;;;;;;;;;;;;12953639;23;20004;-81
2023/12/06 16:17:46;;;;;;;5.20;4.00;;;;;;;;;;12909969;23;19900;-81
2023/12/06 16:22:47;;;;;;;;;;;;;;;;;;12935239;23;20008;-84
2023/12/06 16:27:48;;;;;;;6.88;4.65;;;;;;;;;;12916114;23;19966;-83
2023/12/06 16:32:52;;;;;;;7.10;4.63;;;;;;;;;;12938474;23;20060;-83
2023/12/06 16:38:07;;;;;;;7.00;4.63;;;;;;;;;;12936180;23;20036;-83
2023/12/06 16:43:41;;;;;;;7.00;5.30;;;;;;;;;;12918091;23;20012;-84
2023/12/06 16:48:58;;;;;;;6.40;5.47;;;;;;;;;;12940304;22;20000;-81
2023/12/06 16:54:01;;;;;;;5.43;3.85;;;;;;;;;;12937453;23;20028;-86
2023/12/06 16:59:04;;;;;;;6.10;5.00;;;;;;;;;;12936657;22;20000;-86
2023/12/06 17:04:10;;;;;;;9.57;6.47;;;;;;;;;;12940503;23;20012;-87
2023/12/06 17:09:11;;;;;;;6.47;4.47;;;;;;;;;;12913239;22;20084;-85
2023/12/06 17:14:12;;;;;;;;;;;;;;;;;;12934042;23;20008;-86
2023/12/06 17:19:13;;;;;;;5.65;3.78;;;;;;;;;;12913523;22;19979;-85
2023/12/06 17:24:15;;;;;;;6.13;4.97;;;;;;;;;;12938609;23;20019;-84
2023/12/06 17:29:16;;;;;;;;;;;;;;;;;;12940119;22;20001;-85
2023/12/06 17:34:17;;;;;;;7.43;4.45;;;;;;;;;;12904995;23;19982;-88
2023/12/06 17:39:19;;;;;;;;;;;;;;;;;;12930835;22;20055;-88
2023/12/06 17:44:20;;;;;;;5.43;4.65;;;;;;;;;;12903866;23;19950;-89
2023/12/06 17:49:21;;;;;;;;;;;;;;;;;;12930088;22;20008;-90
2023/12/06 17:54:22;;;;;;;5.18;4.50;;;;;;;;;;12905896;23;19982;-89
2023/12/06 17:59:23;;;;;;;7.05;5.20;;;;;;;;;;12935178;22;20043;-89
2023/12/06 18:04:24;;;;;;;4.85;4.18;;;;;;;;;;12939013;23;20055;-89
2023/12/06 18:09:25;;;;;;;6.57;4.20;;;;;;;;;;12942746;22;20016;-90
2023/12/06 18:14:26;;;;;;;;;;;;;;;;;;12932694;23;20011;-90
2023/12/06 18:19:28;;;;;;;5.15;3.90;;;;;;;;;;12906661;22;20230;-90
2023/12/06 18:24:29;;;;;;;5.30;4.07;;;;;;;;;;12931678;23;20032;-90
2023/12/06 18:29:30;;;;;;;;;;;;;;;;;;12935270;22;20419;-90
2023/12/06 18:34:31;;;;;;;5.65;4.47;;;;;;;;;;12906634;23;19910;-90
2023/12/06 18:39:32;;;;;;;;;;;;;;;;;;12929304;22;20431;-90
2023/12/06 18:44:33;;;;;;;5.65;3.85;;;;;;;;;;12902740;23;19900;-90
2023/12/06 18:49:34;;;;;;;4.80;3.38;;;;;;;;;;12930189;22;19996;-90
2023/12/06 18:54:35;;;;;;;;;;;;;;;;;;12931117;23;20055;-90
2023/12/06 18:59:37;;;;;;;4.63;3.65;;;;;;;;;;12905101;22;20242;-90
2023/12/06 19:04:39;;;;;;;5.20;3.53;;;;;;;;;;12931658;23;20028;-90
2023/12/06 19:09:40;;;;;;;5.75;3.40;;;;;;;;;;12928066;22;20083;-90
2023/12/06 19:14:41;;;;;;;5.07;3.80;;;;;;;;;;12929293;23;20086;-90
2023/12/06 19:19:42;;;;;;;;;;;;;;;;;;12929100;22;20004;-90
2023/12/06 19:24:43;;;;;;;6.15;4.38;;;;;;;;;;12908258;23;19942;-90
2023/12/06 19:29:44;;;;;;;;;;;;;;;;;;12938978;22;20011;-91
2023/12/06 19:34:46;;;;;;;5.40;3.63;;;;;;;;;;12945282;23;20237;-91
2023/12/06 19:39:47;;;;;;;7.68;4.25;;;;;;;;;;12976121;22;20027;-87
2023/12/06 19:44:48;;;;;;;4.30;3.50;;;;;;;;;;12953472;22;20068;-90
2023/12/06 19:49:49;;;;;;;;;;;;;;;;;;12939738;22;20035;-90
2023/12/06 19:54:50;;;;;;;5.38;3.60;;;;;;;;;;12912033;23;20296;-90
2023/12/06 19:59:51;;;;;;;;;;;;;;;;;;12935338;22;20000;-90
2023/12/06 20:04:53;;;;;;;5.15;4.00;;;;;;;;;;12938244;23;19915;-90
2023/12/06 20:09:54;;;;;;;4.90;4.05;;;;;;;;;;12936417;22;20011;-90
